createdAt,value
2018-02-13T00:01:57.437Z,6.95
2018-02-13T00:04:24.451Z,7.20
2018-02-13T00:06:50.900Z,7.43
2018-02-13T00:09:17.051Z,6.72
2018-02-13T00:11:44.356Z,7.10
2018-02-13T00:14:11.347Z,7.93
2018-02-13T00:16:39.419Z,7.30
2018-02-13T00:19:05.579Z,7.47
2018-02-13T00:21:31.751Z,6.95
2018-02-13T00:23:59.907Z,8.30
2018-02-13T00:26:26.451Z,8.68
2018-02-13T00:28:53.384Z,8.68
2018-02-13T00:31:19.531Z,8.20
2018-02-13T00:33:45.707Z,8.30
2018-02-13T00:36:11.897Z,8.07
2018-02-13T00:38:38.073Z,8.68
2018-02-13T00:41:04.229Z,9.05
2018-02-13T00:43:30.403Z,9.68
2018-02-13T00:45:56.568Z,9.13
2018-02-13T00:48:22.731Z,8.77
2018-02-13T00:50:48.907Z,10.23
2018-02-13T00:53:15.098Z,8.50
2018-02-13T00:55:41.243Z,9.75
2018-02-13T00:58:08.204Z,10.90
2018-02-13T01:00:35.863Z,11.07
2018-02-13T01:03:02.012Z,10.95
2018-02-13T01:05:29.895Z,9.23
2018-02-13T01:07:57.053Z,10.73
2018-02-13T01:10:23.960Z,11.73
2018-02-13T01:12:50.126Z,10.25
2018-02-13T01:15:16.291Z,11.82
2018-02-13T01:17:43.207Z,12.05
2018-02-13T01:20:10.119Z,11.07
2018-02-13T01:22:36.498Z,12.32
2018-02-13T01:25:03.429Z,9.90
2018-02-13T01:27:29.658Z,11.57
2018-02-13T01:29:55.849Z,11.30
2018-02-13T01:32:22.013Z,11.50
2018-02-13T01:34:48.175Z,11.60
2018-02-13T01:37:14.339Z,11.10
2018-02-13T01:39:41.244Z,11.27
2018-02-13T01:42:07.443Z,12.07
2018-02-13T01:44:33.616Z,11.25
2018-02-13T01:46:59.778Z,11.05
2018-02-13T01:49:26.735Z,11.60
2018-02-13T01:51:53.628Z,11.95
2018-02-13T01:54:19.768Z,11.02
2018-02-13T01:56:45.947Z,10.60
2018-02-13T01:59:12.892Z,10.98
2018-02-13T02:01:39.063Z,11.48
2018-02-13T02:04:05.233Z,12.20
2018-02-13T02:06:31.607Z,12.45
2018-02-13T02:08:57.799Z,12.40
2018-02-13T02:11:23.979Z,12.37
2018-02-13T02:13:50.914Z,11.80
2018-02-13T02:16:17.075Z,11.55
2018-02-13T02:18:43.327Z,10.93
2018-02-13T02:21:09.493Z,12.32
2018-02-13T02:23:35.711Z,12.13
2018-02-13T02:26:01.988Z,12.88
2018-02-13T02:28:28.192Z,11.73
2018-02-13T02:30:54.368Z,12.02
2018-02-13T02:33:21.380Z,11.88
2018-02-13T02:35:47.545Z,12.57
2018-02-13T02:38:14.452Z,11.60
2018-02-13T02:40:40.620Z,13.10
2018-02-13T02:43:07.519Z,13.18
2018-02-13T02:45:33.683Z,12.68
2018-02-13T02:47:59.891Z,13.70
2018-02-13T02:50:26.060Z,13.10
2018-02-13T02:52:52.246Z,13.30
2018-02-13T02:55:18.437Z,13.57
2018-02-13T02:57:44.612Z,13.02
2018-02-13T03:00:10.759Z,14.45
2018-02-13T03:02:37.112Z,13.32
2018-02-13T03:05:03.321Z,14.23
2018-02-13T03:07:29.560Z,13.35
2018-02-13T03:09:55.754Z,13.20
2018-02-13T03:12:22.688Z,12.50
2018-02-13T03:14:48.875Z,12.75
2018-02-13T03:17:15.035Z,13.60
2018-02-13T03:19:41.199Z,12.82
2018-02-13T03:22:07.399Z,14.15
2018-02-13T03:24:33.582Z,13.07
2018-02-13T03:26:59.752Z,13.50
2018-02-13T03:29:27.763Z,13.70
2018-02-13T03:31:54.440Z,13.95
2018-02-13T03:34:20.607Z,13.55
2018-02-13T03:36:46.778Z,14.25
2018-02-13T03:39:12.946Z,13.98
2018-02-13T03:41:39.836Z,12.75
2018-02-13T03:44:06.004Z,14.75
2018-02-13T03:46:32.204Z,13.98
2018-02-13T03:48:58.363Z,13.98
2018-02-13T03:51:25.271Z,15.40
2018-02-13T03:53:51.437Z,13.75
2018-02-13T03:56:18.428Z,13.50
2018-02-13T03:58:44.588Z,15.70
2018-02-13T04:01:18.450Z,14.20
2018-02-13T04:03:44.982Z,13.35
2018-02-13T04:06:11.135Z,15.07
2018-02-13T04:08:38.436Z,13.90
2018-02-13T04:11:05.376Z,14.25
2018-02-13T04:13:31.544Z,14.70
2018-02-13T04:15:58.483Z,14.07
2018-02-13T04:18:24.651Z,13.65
2018-02-13T04:20:51.568Z,14.57
2018-02-13T04:23:17.751Z,13.85
2018-02-13T04:25:44.645Z,15.23
2018-02-13T04:28:10.791Z,14.70
2018-02-13T04:30:36.984Z,14.38
2018-02-13T04:33:03.147Z,15.35
2018-02-13T04:35:29.291Z,14.32
2018-02-13T04:37:55.475Z,12.95
2018-02-13T04:40:21.641Z,15.00
2018-02-13T04:42:47.792Z,15.43
2018-02-13T04:45:13.960Z,14.73
2018-02-13T04:47:40.863Z,13.98
2018-02-13T04:50:07.012Z,14.48
2018-02-13T04:52:33.192Z,15.20
2018-02-13T04:54:59.351Z,15.40
2018-02-13T04:57:26.511Z,14.98
2018-02-13T04:59:52.766Z,14.35
2018-02-13T05:02:18.920Z,14.18
2018-02-13T05:04:45.184Z,15.27
2018-02-13T05:07:11.363Z,15.90
2018-02-13T05:09:37.772Z,14.30
2018-02-13T05:12:04.134Z,16.08
2018-02-13T05:14:30.299Z,15.77
2018-02-13T05:16:56.450Z,14.87
2018-02-13T05:19:22.632Z,15.15
2018-02-13T05:21:48.815Z,16.42
2018-02-13T05:24:14.983Z,16.45
2018-02-13T05:26:41.171Z,16.90
2018-02-13T05:29:08.085Z,15.40
2018-02-13T05:31:34.244Z,16.15
2018-02-13T05:34:01.896Z,16.55
2018-02-13T05:36:28.059Z,16.70
2018-02-13T05:38:54.211Z,15.30
2018-02-13T05:41:20.383Z,16.00
2018-02-13T05:43:46.583Z,16.17
2018-02-13T05:46:12.745Z,15.82
2018-02-13T05:48:38.981Z,17.25
2018-02-13T05:51:05.164Z,16.42
2018-02-13T05:53:32.103Z,16.70
2018-02-13T05:55:58.244Z,17.10
2018-02-13T05:58:25.153Z,17.08
2018-02-13T06:00:51.328Z,18.15
2018-02-13T06:03:18.235Z,19.37
2018-02-13T06:05:49.750Z,17.85
2018-02-13T06:08:16.647Z,16.85
2018-02-13T06:10:43.072Z,17.70
2018-02-13T06:13:09.480Z,16.33
2018-02-13T06:15:35.647Z,17.77
2018-02-13T06:18:01.808Z,19.90
2018-02-13T06:20:27.991Z,17.50
2018-02-13T06:22:54.136Z,17.35
2018-02-13T06:25:20.291Z,18.52
2018-02-13T06:27:46.455Z,17.30
2018-02-13T06:30:12.611Z,18.62
2018-02-13T06:32:38.776Z,19.00
2018-02-13T06:35:04.940Z,19.33
2018-02-13T06:37:39.126Z,19.02
2018-02-13T06:40:07.247Z,19.92
2018-02-13T06:42:33.406Z,22.33
2018-02-13T06:44:59.576Z,20.40
2018-02-13T06:47:25.787Z,18.20
2018-02-13T06:49:51.937Z,21.40
2018-02-13T06:52:18.091Z,20.98
2018-02-13T06:54:45.070Z,21.45
2018-02-13T06:57:12.001Z,21.12
2018-02-13T06:59:38.172Z,20.52
2018-02-13T07:02:05.072Z,21.33
2018-02-13T07:04:31.236Z,21.50
2018-02-13T07:06:58.172Z,22.65
2018-02-13T07:09:25.100Z,22.08
2018-02-13T07:11:51.384Z,22.25
2018-02-13T07:14:17.591Z,23.95
2018-02-13T07:16:43.768Z,22.30
2018-02-13T07:19:09.937Z,22.83
2018-02-13T07:21:36.864Z,23.52
2018-02-13T07:24:03.027Z,24.50
2018-02-13T07:26:30.939Z,24.58
2018-02-13T07:28:58.847Z,23.33
2018-02-13T07:31:26.819Z,25.00
2018-02-13T07:33:55.059Z,23.10
2018-02-13T07:36:21.963Z,24.23
2018-02-13T07:38:48.123Z,22.87
2018-02-13T07:41:14.307Z,24.73
2018-02-13T07:43:40.544Z,22.65
2018-02-13T07:46:06.736Z,21.62
2018-02-13T07:48:32.922Z,23.12
2018-02-13T07:50:59.107Z,24.77
2018-02-13T07:53:27.083Z,22.42
2018-02-13T07:55:55.020Z,22.75
2018-02-13T07:58:22.952Z,22.45
2018-02-13T08:00:50.912Z,21.98
2018-02-13T08:03:18.861Z,22.55
2018-02-13T08:05:46.787Z,22.90
2018-02-13T08:08:14.732Z,21.48
2018-02-13T08:10:42.680Z,21.67
2018-02-13T08:13:10.691Z,20.98
2018-02-13T08:15:38.757Z,20.98
2018-02-13T08:18:06.694Z,23.15
2018-02-13T08:20:34.635Z,22.85
2018-02-13T08:23:02.589Z,23.60
2018-02-13T08:25:30.581Z,21.80
2018-02-13T08:27:58.488Z,20.37
2018-02-13T08:30:26.479Z,19.35
2018-02-13T08:32:54.400Z,18.45
2018-02-13T08:35:22.304Z,20.35
2018-02-13T08:37:50.274Z,19.70
2018-02-13T08:40:18.174Z,19.80
2018-02-13T08:42:46.111Z,19.23
2018-02-13T08:45:14.063Z,19.33
2018-02-13T08:47:41.974Z,18.70
2018-02-13T08:50:09.889Z,17.70
2018-02-13T08:52:37.855Z,17.77
2018-02-13T08:55:05.759Z,17.10
2018-02-13T08:57:33.686Z,16.70
2018-02-13T09:00:01.629Z,16.17
2018-02-13T09:02:29.567Z,17.70
2018-02-13T09:04:57.518Z,17.07
2018-02-13T09:07:25.467Z,18.13
2018-02-13T09:09:53.362Z,17.37
2018-02-13T09:12:21.300Z,18.07
2018-02-13T09:14:49.439Z,17.27
2018-02-13T09:17:17.408Z,19.00
2018-02-13T09:19:45.327Z,18.17
2018-02-13T09:22:13.255Z,17.73
2018-02-13T09:24:41.210Z,18.03
2018-02-13T09:27:09.147Z,17.83
2018-02-13T09:29:37.146Z,18.50
2018-02-13T09:32:05.083Z,17.93
2018-02-13T09:34:33.016Z,17.10
2018-02-13T09:37:00.942Z,18.63
2018-02-13T09:39:28.854Z,18.00
2018-02-13T09:41:56.795Z,17.80
2018-02-13T09:44:24.715Z,17.30
2018-02-13T09:46:52.642Z,17.73
2018-02-13T09:49:20.543Z,17.80
2018-02-13T09:51:48.483Z,18.80
2018-02-13T09:54:16.381Z,17.83
2018-02-13T09:56:44.295Z,16.80
2018-02-13T09:59:12.239Z,17.33
2018-02-13T10:01:40.158Z,16.00
2018-02-13T10:04:08.098Z,17.07
2018-02-13T10:06:36.051Z,16.13
2018-02-13T10:09:03.974Z,17.50
2018-02-13T10:11:31.903Z,17.33
2018-02-13T10:13:59.818Z,18.10
2018-02-13T10:16:27.907Z,16.87
2018-02-13T10:18:56.021Z,15.83
2018-02-13T10:21:22.207Z,16.43
2018-02-13T10:23:48.405Z,16.77
2018-02-13T10:26:15.324Z,17.80
2018-02-13T10:28:41.547Z,15.77
2018-02-13T10:31:07.691Z,16.23
2018-02-13T10:33:33.868Z,16.20
2018-02-13T10:36:01.821Z,16.70
2018-02-13T10:38:29.787Z,17.10
2018-02-13T10:40:57.651Z,16.63
2018-02-13T10:43:25.608Z,16.50
2018-02-13T10:45:53.506Z,17.30
2018-02-13T10:48:21.415Z,15.43
2018-02-13T10:50:49.379Z,17.03
2018-02-13T10:53:17.311Z,16.17
2018-02-13T10:55:45.228Z,16.50
2018-02-13T10:58:13.203Z,15.90
2018-02-13T11:00:47.084Z,17.10
2018-02-13T11:03:15.023Z,17.00
2018-02-13T11:05:42.944Z,15.50
2018-02-13T11:08:10.875Z,15.90
2018-02-13T11:10:38.791Z,15.70
2018-02-13T11:13:06.730Z,16.30
2018-02-13T11:15:34.667Z,15.40
2018-02-13T11:18:02.697Z,15.53
2018-02-13T11:20:30.692Z,15.63
2018-02-13T11:22:58.611Z,17.97
2018-02-13T11:25:26.600Z,15.93
2018-02-13T11:27:54.546Z,15.53
2018-02-13T11:30:22.454Z,16.00
2018-02-13T11:32:50.434Z,14.10
2018-02-13T11:35:18.354Z,15.00
2018-02-13T11:37:45.243Z,14.53
2018-02-13T11:40:11.447Z,12.80
2018-02-13T11:42:37.604Z,13.53
2018-02-13T11:45:03.827Z,13.23
2018-02-13T11:47:31.915Z,14.77
2018-02-13T11:49:59.847Z,12.40
2018-02-13T11:52:27.759Z,14.37
2018-02-13T11:54:55.727Z,11.87
2018-02-13T11:57:23.652Z,12.47
2018-02-13T11:59:51.579Z,12.57
2018-02-13T12:02:19.621Z,11.80
2018-02-13T12:04:47.550Z,11.90
2018-02-13T12:07:15.450Z,13.03
2018-02-13T12:09:43.387Z,11.40
2018-02-13T12:12:11.322Z,12.00
2018-02-13T12:14:39.219Z,11.43
2018-02-13T12:17:07.163Z,12.70
2018-02-13T12:19:35.156Z,11.80
2018-02-13T12:22:03.120Z,12.57
2018-02-13T12:24:31.225Z,11.43
2018-02-13T12:26:59.143Z,11.33
2018-02-13T12:29:27.066Z,11.27
2018-02-13T12:31:55.007Z,10.60
2018-02-13T12:34:22.915Z,10.13
2018-02-13T12:36:50.823Z,10.57
2018-02-13T12:39:18.765Z,10.43
2018-02-13T12:41:46.678Z,11.47
2018-02-13T12:44:14.586Z,11.07
2018-02-13T12:46:42.534Z,9.80
2018-02-13T12:49:10.461Z,10.40
2018-02-13T12:51:38.407Z,10.40
2018-02-13T12:54:06.334Z,10.80
2018-02-13T12:56:34.274Z,10.57
2018-02-13T12:59:02.213Z,9.17
2018-02-13T13:01:30.152Z,8.73
2018-02-13T13:03:58.071Z,10.17
2018-02-13T13:06:25.966Z,10.27
2018-02-13T13:08:54.052Z,8.07
2018-02-13T13:11:21.960Z,7.60
2018-02-13T13:13:49.876Z,8.20
2018-02-13T13:16:17.803Z,9.20
2018-02-13T13:18:45.726Z,9.00
2018-02-13T13:21:13.896Z,7.07
2018-02-13T13:23:42.090Z,8.33
2018-02-13T13:26:10.075Z,7.40
2018-02-13T13:28:37.923Z,7.20
2018-02-13T13:31:05.875Z,8.10
2018-02-13T13:33:33.793Z,6.83
2018-02-13T13:36:01.706Z,7.40
2018-02-13T13:38:29.648Z,6.40
2018-02-13T13:40:57.583Z,7.17
2018-02-13T13:43:25.514Z,6.50
2018-02-13T13:45:53.443Z,6.30
2018-02-13T13:48:21.376Z,6.90
2018-02-13T13:50:49.270Z,5.60
2018-02-13T13:53:17.187Z,5.67
2018-02-13T13:55:45.095Z,6.20
2018-02-13T14:01:11.779Z,5.97
2018-02-13T15:07:22.039Z,5.43
2018-02-13T15:09:50.155Z,4.63
2018-02-13T15:12:18.091Z,4.60
2018-02-13T15:14:46.875Z,5.07
2018-02-13T15:17:16.682Z,4.97
2018-02-13T15:19:44.619Z,4.97
2018-02-13T15:22:12.752Z,5.10
2018-02-13T15:24:40.667Z,5.33
2018-02-13T15:27:08.631Z,4.97
2018-02-13T15:29:36.583Z,4.97
2018-02-13T15:32:04.531Z,5.10
2018-02-13T15:34:40.691Z,4.93
2018-02-13T15:37:08.961Z,5.03
2018-02-13T15:39:36.850Z,5.33
2018-02-13T15:42:04.815Z,5.03
2018-02-13T15:44:33.041Z,4.93
2018-02-13T15:47:11.743Z,5.33
2018-02-13T15:49:39.666Z,5.63
2018-02-13T15:52:07.611Z,5.47
2018-02-13T15:54:35.551Z,5.30
2018-02-13T15:57:03.489Z,6.00
2018-02-13T15:59:30.392Z,4.93
2018-02-13T16:01:56.569Z,6.40
2018-02-13T16:04:22.809Z,5.97
2018-02-13T16:06:49.012Z,5.87
2018-02-13T16:09:15.923Z,5.33
2018-02-13T16:11:42.325Z,4.90
2018-02-13T16:14:08.500Z,6.00
2018-02-13T16:16:35.471Z,5.53
2018-02-13T16:19:01.652Z,5.20
2018-02-13T16:21:27.839Z,5.93
2018-02-13T16:23:54.023Z,5.07
2018-02-13T16:26:20.201Z,6.47
2018-02-13T16:28:46.372Z,5.10
2018-02-13T16:31:12.644Z,6.10
2018-02-13T16:33:39.056Z,5.50
2018-02-13T16:36:05.963Z,7.60
2018-02-13T16:38:33.874Z,7.00
2018-02-13T16:41:00.095Z,8.10
2018-02-13T16:43:26.987Z,7.33
2018-02-13T16:45:53.136Z,7.37
2018-02-13T16:48:19.327Z,7.72
2018-02-13T16:50:46.235Z,6.97
2018-02-13T16:53:12.387Z,8.80
2018-02-13T16:55:38.583Z,10.77
2018-02-13T16:58:04.809Z,9.30
2018-02-13T17:00:31.257Z,8.75
2018-02-13T17:02:57.427Z,8.27
2018-02-13T17:05:24.359Z,8.02
2018-02-13T17:07:50.559Z,9.82
2018-02-13T17:10:16.732Z,8.40
2018-02-13T17:12:43.780Z,9.88
2018-02-13T17:15:09.988Z,8.70
2018-02-13T17:17:36.136Z,8.57
2018-02-13T17:20:02.316Z,8.43
2018-02-13T17:22:29.276Z,9.85
2018-02-13T17:24:55.448Z,9.35
2018-02-13T17:27:21.624Z,10.30
2018-02-13T17:29:47.783Z,10.38
2018-02-13T17:32:13.958Z,9.77
2018-02-13T17:34:40.172Z,10.05
2018-02-13T17:37:06.345Z,11.18
2018-02-13T17:39:40.088Z,10.75
2018-02-13T17:42:07.608Z,11.20
2018-02-13T17:44:33.775Z,11.30
2018-02-13T17:47:00.676Z,12.23
2018-02-13T17:49:27.123Z,11.45
2018-02-13T17:51:53.287Z,11.77
2018-02-13T17:54:20.187Z,12.20
2018-02-13T17:56:46.383Z,13.73
2018-02-13T17:59:12.614Z,14.43
2018-02-13T18:01:38.788Z,13.95
2018-02-13T18:04:06.731Z,16.25
2018-02-13T18:06:34.663Z,15.25
2018-02-13T18:09:02.570Z,15.25
2018-02-13T18:11:30.548Z,12.90
2018-02-13T18:13:58.531Z,13.32
2018-02-13T18:16:26.475Z,14.77
2018-02-13T18:18:54.530Z,12.80
2018-02-13T18:21:22.441Z,14.60
2018-02-13T18:23:50.371Z,13.52
2018-02-13T18:26:18.310Z,13.90
2018-02-13T18:28:46.246Z,13.35
2018-02-13T18:31:14.175Z,16.90
2018-02-13T18:33:42.133Z,15.70
2018-02-13T18:36:10.099Z,15.70
2018-02-13T18:38:38.061Z,14.70
2018-02-13T18:41:07.782Z,12.30
2018-02-13T18:43:36.595Z,13.02
2018-02-13T18:46:04.542Z,12.70
2018-02-13T18:48:32.488Z,11.68
2018-02-13T18:51:00.418Z,12.65
2018-02-13T18:53:28.327Z,13.77
2018-02-13T18:55:56.279Z,13.77
2018-02-13T18:58:24.211Z,15.18
2018-02-13T19:00:52.177Z,14.87
2018-02-13T19:03:20.116Z,12.40
2018-02-13T19:05:48.019Z,12.60
2018-02-13T19:08:15.938Z,14.70
2018-02-13T19:10:43.899Z,13.52
2018-02-13T19:13:11.859Z,11.40
2018-02-13T19:15:40.010Z,12.00
2018-02-13T19:18:08.172Z,10.60
2018-02-13T19:20:36.074Z,11.85
2018-02-13T19:23:03.987Z,10.68
2018-02-13T19:25:32.274Z,11.77
2018-02-13T19:28:00.199Z,10.40
2018-02-13T19:30:28.128Z,10.25
2018-02-13T19:32:56.207Z,10.10
2018-02-13T19:35:24.130Z,9.82
2018-02-13T19:37:52.059Z,9.98
2018-02-13T19:40:20.024Z,10.82
2018-02-13T19:42:49.790Z,9.82
2018-02-13T19:45:18.286Z,9.18
2018-02-13T19:47:46.224Z,11.00
2018-02-13T19:50:14.140Z,9.80
2018-02-13T19:52:42.079Z,9.57
2018-02-13T19:55:10.014Z,10.98
2018-02-13T19:57:37.926Z,9.60
2018-02-13T20:00:06.063Z,11.23
2018-02-13T20:02:33.973Z,11.32
2018-02-13T20:05:01.907Z,10.85
2018-02-13T20:07:29.887Z,10.60
2018-02-13T20:09:57.814Z,12.27
2018-02-13T20:12:25.768Z,12.93
2018-02-13T20:14:53.860Z,12.93
2018-02-13T20:17:21.844Z,11.73
2018-02-13T20:19:49.759Z,11.80
2018-02-13T20:22:17.808Z,12.00
2018-02-13T20:24:45.712Z,11.70
2018-02-13T20:27:13.619Z,10.98
2018-02-13T20:29:41.547Z,11.02
2018-02-13T20:32:09.450Z,10.07
2018-02-13T20:34:37.364Z,11.55
2018-02-13T20:37:05.296Z,11.65
2018-02-13T20:39:33.207Z,13.25
2018-02-13T20:42:01.119Z,11.65
2018-02-13T20:44:29.492Z,11.50
2018-02-13T20:46:58.207Z,10.73
2018-02-13T20:52:38.997Z,11.02
2018-02-13T20:55:07.017Z,12.18
2018-02-13T20:57:35.969Z,11.15
2018-02-13T21:00:03.980Z,11.55
2018-02-13T21:02:32.132Z,10.85
2018-02-13T21:05:00.326Z,10.68
2018-02-13T21:07:28.328Z,10.98
2018-02-13T21:09:56.358Z,11.70
2018-02-13T21:12:24.385Z,10.90
2018-02-13T21:14:53.472Z,11.63
2018-02-13T21:17:23.031Z,9.32
2018-02-13T21:19:51.457Z,10.40
2018-02-13T21:22:19.556Z,10.18
2018-02-13T21:24:49.916Z,10.13
2018-02-13T21:27:17.944Z,9.88
2018-02-13T21:29:45.949Z,10.30
2018-02-13T21:32:13.964Z,10.48
2018-02-13T21:34:42.021Z,10.30
2018-02-13T21:37:10.005Z,11.12
2018-02-13T21:39:38.857Z,10.90
2018-02-13T21:42:06.934Z,11.75
2018-02-13T21:44:35.039Z,11.00
2018-02-13T21:47:01.396Z,12.80
2018-02-13T21:49:27.692Z,11.00
2018-02-13T21:51:54.453Z,10.00
2018-02-13T21:54:20.768Z,11.50
2018-02-13T21:56:47.112Z,11.68
2018-02-13T21:59:13.469Z,11.82
2018-02-13T22:01:39.754Z,11.52
2018-02-13T22:04:06.100Z,12.75
2018-02-13T22:06:32.503Z,13.00
2018-02-13T22:08:58.824Z,12.30
2018-02-13T22:11:25.450Z,13.77
2018-02-13T22:13:53.185Z,14.60
2018-02-13T22:16:20.177Z,14.00
2018-02-13T22:49:04.743Z,11.65
2018-02-13T22:51:39.732Z,11.50
2018-02-13T22:54:08.171Z,12.50
2018-02-13T22:56:37.355Z,13.70
2018-02-13T22:59:07.968Z,12.00
2018-02-13T23:01:38.206Z,12.18
2018-02-13T23:04:06.714Z,10.50
2018-02-13T23:06:35.164Z,12.32
2018-02-13T23:09:03.522Z,11.77
2018-02-13T23:11:32.021Z,13.30
